Stations météo

Publicité
Embrun, France (7591): Température de l'air & dewpoint: 16.02.2017 07:00:00 - 22.02.2017 07:00:00 (CET)Embrun, France (7591): Température de l'air 5cm: 16.02.2017 07:00:00 - 22.02.2017 07:00:00 (CET)Embrun, France (7591): Température de l'air -20cm & Température de l'air -100cm: 16.02.2017 07:00:00 - 22.02.2017 07:00:00 (CET)Embrun, France (7591): Vitesse du vent & gusts: 16.02.2017 07:00:00 - 22.02.2017 07:00:00 (CET)Embrun, France (7591): Direction du vent: 16.02.2017 07:00:00 - 22.02.2017 07:00:00 (CET)Embrun, France (7591): visibility: 16.02.2017 07:00:00 - 22.02.2017 07:00:00 (CET)Embrun, France (7591): Ensoleillement: 16.02.2017 07:00:00 - 22.02.2017 07:00:00 (CET)Embrun, France (7591): Quantités de précipitations: 16.02.2017 07:00:00 - 22.02.2017 07:00:00 (CET)
Date & Time tt [°C] td [°C] tt 5cm [°C] tt -20cm [°C] tt -100cm [°C] ff [km/h] ff [knt] fx [km/h] fx [knt] dd vv [km] sd [min] rr [mm]
22.02.2017 07:00:00 - - - - - - - - - - - - -
22.02.2017 06:00:00 - - - - - - - - - - - - -
22.02.2017 05:00:00 - - - - - - - - - - - - -
22.02.2017 04:00:00 - - - - - - - - - - - - -
22.02.2017 03:00:00 - - - - - - - - - - - - -
22.02.2017 02:00:00 - - - - - - - - - - - - -
22.02.2017 01:00:00 - - - - - - - - - - - - -
22.02.2017 00:00:00 - - - - - - - - - - - - -
21.02.2017 23:00:00 - - - - - - - - - - - - -
21.02.2017 22:00:00 - - - - - - - - - - - - -
21.02.2017 21:00:00 - - - - - - - - - - - - -
21.02.2017 20:00:00 - - - - - - - - - - - - -
21.02.2017 19:00:00 9,9 1,0 6,5 5,1 5,6 5 3 9 5 N 20 0 0,0
21.02.2017 18:00:00 13,6 0,9 11,0 4,9 5,6 5 3 25 14 SW 20 51 0,0
21.02.2017 17:00:00 15,6 1,7 17,2 4,8 5,6 16 9 34 18 SSW 20 60 0,0
21.02.2017 16:00:00 16,8 0,8 20,4 4,7 5,6 14 8 29 16 SSW 20 60 0,0
21.02.2017 15:00:00 16,4 0,1 21,6 4,7 5,6 14 7 23 12 SSW 20 60 0,0
21.02.2017 14:00:00 14,8 -1,3 19,8 4,7 5,6 8 4 17 9 SSW 20 60 0,0
21.02.2017 13:00:00 12,0 -3,4 17,5 4,7 5,6 10 5 18 10 SSW 20 60 0,0
21.02.2017 12:00:00 9,6 -3,4 15,2 4,7 5,6 8 4 14 8 SSW 20 60 0,0
21.02.2017 11:00:00 6,9 -4,5 13,2 4,7 5,6 2 1 13 7 SSE 20 60 0,0
21.02.2017 10:00:00 4,3 -4,2 8,2 4,8 5,6 3 1 13 7 NNE 20 60 0,0
21.02.2017 09:00:00 0,8 -4,1 -2,7 4,9 5,6 8 4 12 7 NE 20 31 0,0
21.02.2017 08:00:00 -1,3 -5,0 -3,4 4,9 5,6 4 2 11 6 NNW 20 0 0,0
21.02.2017 07:00:00 -1,0 -5,1 -2,8 5,0 5,6 6 3 9 5 SSW 20 0 0,0
21.02.2017 06:00:00 0,1 -5,5 -3,0 5,0 5,6 5 3 16 9 NE 20 0 0,0
21.02.2017 05:00:00 -0,3 -5,5 -3,2 5,0 5,6 3 2 7 4 N 20 0 0,0
21.02.2017 04:00:00 0,6 -5,4 -2,4 5,1 5,6 3 1 7 4 N 20 0 0,0
21.02.2017 03:00:00 0,6 -5,0 -1,5 5,1 5,6 0 0 8 4 N 20 0 0,0
21.02.2017 02:00:00 1,2 -4,7 -1,3 5,1 5,6 4 2 9 5 NE 20 0 0,0
21.02.2017 01:00:00 2,6 -5,1 0,6 5,1 5,6 4 2 18 10 WNW 20 0 0,0
21.02.2017 00:00:00 3,2 -5,2 0,6 5,1 5,6 10 5 14 8 NNE 20 0 0,0
20.02.2017 23:00:00 3,2 -4,7 1,0 5,1 5,6 3 2 7 4 NE 20 0 0,0
20.02.2017 22:00:00 4,1 -5,4 1,1 5,1 5,6 5 3 13 7 NNE 20 0 0,0
20.02.2017 21:00:00 4,2 -4,8 1,1 5,1 5,6 3 2 6 3 N 20 0 0,0
20.02.2017 20:00:00 5,2 -4,9 1,9 5,0 5,6 3 2 6 3 N 20 0 0,0
20.02.2017 19:00:00 6,9 -5,8 3,3 4,9 5,6 3 2 9 5 NNE 20 0 0,0
20.02.2017 18:00:00 10,0 -6,0 8,3 4,9 5,6 6 3 23 13 SW 20 28 0,0
20.02.2017 17:00:00 11,8 -5,7 12,1 4,8 5,6 14 7 24 13 SSW 20 60 0,0
20.02.2017 16:00:00 13,0 -6,1 16,6 4,7 5,5 13 7 25 14 SSW 19 60 0,0
20.02.2017 15:00:00 12,6 -7,5 18,5 4,6 5,5 13 7 22 12 SSW 20 60 0,0
20.02.2017 14:00:00 11,8 -6,6 17,8 4,6 5,5 10 6 18 10 SSW 20 60 0,0
20.02.2017 13:00:00 10,3 -7,0 16,6 4,7 5,5 9 5 17 9 S 20 60 0,0
20.02.2017 12:00:00 8,4 -7,8 13,9 4,7 5,5 6 4 14 8 SSW 20 60 0,0
20.02.2017 11:00:00 5,9 -6,7 11,6 4,8 5,5 3 1 8 5 S 20 60 0,0
20.02.2017 10:00:00 3,2 -5,0 5,5 4,8 5,5 2 1 10 6 SSW 12 60 0,0
20.02.2017 09:00:00 1,2 -8,6 -4,3 4,9 5,6 5 3 9 5 SW 20 27 0,0
20.02.2017 08:00:00 -2,3 -8,6 -5,0 5,0 5,5 0 0 7 4 N 20 0 0,0
20.02.2017 07:00:00 -1,2 -8,9 -4,6 5,0 5,5 4 2 9 5 SSW 20 0 0,0
20.02.2017 06:00:00 -0,7 -9,4 -4,4 5,1 5,5 5 3 9 5 NE 20 0 0,0
20.02.2017 05:00:00 -0,5 -8,4 -2,1 5,1 5,5 6 3 25 13 SE 20 0 0,0
20.02.2017 04:00:00 1,5 -10,0 -2,3 5,2 5,5 14 8 24 13 NNE 20 0 0,0
20.02.2017 03:00:00 0,6 -8,6 -2,1 5,2 5,5 11 6 24 13 NE 20 0 0,0
20.02.2017 02:00:00 0,2 -7,3 -2,3 5,3 5,5 12 7 17 9 NE 20 0 0,0
20.02.2017 01:00:00 1,3 -7,5 -2,5 5,3 5,5 12 7 20 11 NNE 20 0 0,0
20.02.2017 00:00:00 1,5 -6,3 -1,7 5,3 5,5 5 3 11 6 NNE 20 0 0,0
19.02.2017 23:00:00 2,6 -4,8 -0,8 5,3 5,5 2 1 20 11 SSW 20 0 0,0
19.02.2017 22:00:00 3,9 -5,3 0,3 5,3 5,5 13 7 21 11 NNE 20 0 0,0
19.02.2017 21:00:00 4,0 -4,2 1,6 5,2 5,5 8 4 15 8 NE 20 0 0,0
19.02.2017 20:00:00 4,8 -4,0 1,9 5,2 5,5 5 3 12 6 NNE 20 0 0,0
19.02.2017 19:00:00 6,7 -3,8 3,6 5,1 5,5 4 2 9 5 N 20 0 0,0
19.02.2017 18:00:00 8,9 -3,7 6,7 5,0 5,5 6 3 11 6 W 20 44 0,0
19.02.2017 17:00:00 11,6 -3,8 13,5 4,9 5,5 8 4 20 11 SSW 20 60 0,0
19.02.2017 16:00:00 11,9 -3,9 16,7 4,8 5,5 9 5 18 10 SSW 20 60 0,0
19.02.2017 15:00:00 11,6 -3,8 17,2 4,8 5,4 8 5 23 12 SSW 20 60 0,0
19.02.2017 14:00:00 11,0 -3,2 16,7 4,7 5,4 14 7 26 14 SSW 20 60 0,0
19.02.2017 13:00:00 10,2 -2,2 16,8 4,7 5,4 11 6 21 11 SSW 20 60 0,0
19.02.2017 12:00:00 8,8 -5,1 15,6 4,8 5,5 6 3 15 8 SSE 20 60 0,0
19.02.2017 11:00:00 7,0 -6,0 9,9 4,8 5,4 8 4 26 14 NE 20 60 0,0
19.02.2017 10:00:00 4,5 -7,3 6,8 4,9 5,4 16 9 31 17 NNE 20 60 0,0
19.02.2017 09:00:00 3,1 -7,1 1,1 4,9 5,4 20 11 31 17 NNE 20 23 0,0
19.02.2017 08:00:00 1,2 -7,1 -1,0 4,9 5,4 14 7 23 12 NNE 20 0 0,0
19.02.2017 07:00:00 0,3 -7,0 -2,3 5,0 5,4 11 6 18 10 NNE 20 0 0,0
19.02.2017 06:00:00 0,0 -6,8 -1,9 5,0 5,4 10 5 23 12 NE 20 0 0,0
19.02.2017 05:00:00 1,0 -7,0 -0,6 5,1 5,4 13 7 27 15 NNE 20 0 0,0
19.02.2017 04:00:00 2,1 -6,7 0,1 5,1 5,4 14 8 29 15 NNE 20 0 0,0
19.02.2017 03:00:00 1,7 -6,6 -0,3 5,1 5,4 10 6 29 16 NE 20 0 0,0
19.02.2017 02:00:00 3,0 -6,7 1,3 5,2 5,4 16 9 27 14 NNE 20 0 0,0
19.02.2017 01:00:00 3,6 -7,0 1,4 5,2 5,4 15 8 26 14 N 20 0 0,0
19.02.2017 00:00:00 3,3 -6,4 1,8 5,2 5,4 14 8 31 17 NNE 20 0 0,0
18.02.2017 23:00:00 4,6 -6,6 2,8 5,2 5,4 20 11 31 17 N 20 0 0,0
18.02.2017 22:00:00 4,5 -5,6 1,9 5,1 5,4 10 6 18 10 NNE 20 0 0,0
18.02.2017 21:00:00 4,9 -5,2 2,2 5,1 5,4 5 3 16 9 N 20 0 0,0
18.02.2017 20:00:00 5,9 -4,0 3,2 5,0 5,4 5 3 9 5 N 20 0 0,0
18.02.2017 19:00:00 7,4 -4,4 3,3 5,0 5,4 4 2 9 5 N 20 0 0,0
18.02.2017 18:00:00 10,1 -4,3 7,5 4,9 5,4 6 3 11 6 WSW 20 44 0,0
18.02.2017 17:00:00 12,6 -4,1 13,5 4,8 5,4 11 6 23 12 SSW 20 60 0,0
18.02.2017 16:00:00 13,3 -5,3 17,5 4,7 5,4 13 7 23 12 SW 20 60 0,0
18.02.2017 15:00:00 13,3 -4,4 18,2 4,7 5,3 14 8 22 12 SSW 20 60 0,0
18.02.2017 14:00:00 12,9 -6,2 19,0 4,7 5,3 10 6 23 12 SSW 20 60 0,0
18.02.2017 13:00:00 11,8 -9,3 20,5 4,7 5,3 5 3 14 8 SSE 20 60 0,0
18.02.2017 12:00:00 9,7 -8,0 15,9 4,7 5,3 11 6 24 13 E 20 60 0,0
18.02.2017 11:00:00 7,8 -8,3 9,6 4,8 5,3 15 8 35 19 NNE 20 60 0,0
18.02.2017 10:00:00 5,4 -7,8 6,2 4,8 5,3 19 10 36 20 NNE 20 60 0,0
18.02.2017 09:00:00 3,7 -7,4 0,9 4,9 5,3 19 10 35 19 NNE 20 21 0,0
18.02.2017 08:00:00 2,4 -8,1 0,4 4,9 5,3 23 12 35 19 N 20 0 0,0
18.02.2017 07:00:00 2,0 -7,1 0,3 5,0 5,3 13 7 29 16 NNE 20 0 0,0
18.02.2017 06:00:00 2,3 -6,3 0,1 5,1 5,3 15 8 31 17 NE 20 0 0,0
18.02.2017 05:00:00 2,3 -5,8 0,0 5,1 5,3 9 5 28 15 NE 20 0 0,0
18.02.2017 04:00:00 2,9 -5,0 -1,2 5,2 5,3 16 8 25 14 NNE 20 0 0,0
18.02.2017 03:00:00 0,8 -3,7 -1,9 5,2 5,3 10 5 14 7 ENE 20 0 0,0
18.02.2017 02:00:00 1,2 -3,1 -1,9 5,3 5,3 6 4 10 6 NNE 20 0 0,0
18.02.2017 01:00:00 0,9 -2,5 -2,1 5,3 5,3 6 3 11 6 N 20 0 0,0
18.02.2017 00:00:00 1,4 -2,4 -1,7 5,3 5,2 5 3 10 6 NNW 20 0 0,0
17.02.2017 23:00:00 2,4 -2,1 -0,8 5,2 5,2 5 3 8 4 NE 20 0 0,0
17.02.2017 22:00:00 3,1 -2,2 -0,2 5,3 5,3 2 1 7 4 N 16 0 0,0
17.02.2017 21:00:00 4,3 -1,7 0,7 5,2 5,2 3 2 5 3 N 20 0 0,0
17.02.2017 20:00:00 5,1 -1,6 1,6 5,2 5,3 3 2 7 4 N 20 0 0,0
17.02.2017 19:00:00 7,4 -1,6 3,4 5,1 5,2 3 2 9 5 N 20 0 0,0
17.02.2017 18:00:00 10,0 -1,7 7,3 5,0 5,2 2 1 18 10 WSW 20 45 0,0
17.02.2017 17:00:00 12,4 -1,2 13,3 4,9 5,2 11 6 24 13 SW 20 60 0,0
17.02.2017 16:00:00 13,2 -1,2 16,3 4,8 5,2 16 8 29 15 SW 18 60 0,0
17.02.2017 15:00:00 13,3 -1,1 18,2 4,7 5,2 16 8 28 15 SSW 20 60 0,0
17.02.2017 14:00:00 12,4 -1,5 18,6 4,7 5,2 12 6 24 13 SSW 20 60 0,0
17.02.2017 13:00:00 11,0 -1,4 17,3 4,7 5,2 10 5 19 10 SSW 20 60 0,0
17.02.2017 12:00:00 9,6 -2,4 16,0 4,8 5,2 6 3 13 7 SSE 20 60 0,0
17.02.2017 11:00:00 7,5 -2,3 6,9 4,8 5,2 5 3 11 6 E 20 52 0,0
17.02.2017 10:00:00 6,1 -3,6 9,1 4,9 5,2 6 3 26 14 ENE 20 60 0,0
17.02.2017 09:00:00 4,1 -3,7 0,8 4,9 5,2 13 7 33 18 NE 20 17 0,0
17.02.2017 08:00:00 2,0 -4,1 -0,6 4,9 5,2 13 7 27 14 NNE 20 0 0,0
17.02.2017 07:00:00 1,2 -3,7 -1,6 5,0 5,2 10 6 21 11 NNE 20 0 0,0
17.02.2017 06:00:00 2,4 -3,7 0,7 5,0 5,2 9 5 32 17 ENE 20 0 0,0
17.02.2017 05:00:00 3,2 -3,6 1,8 5,1 5,1 16 9 31 17 NNE 20 0 0,0
17.02.2017 04:00:00 3,2 -3,2 1,1 5,1 5,2 14 8 31 17 NNE 20 0 0,0
17.02.2017 03:00:00 3,3 -2,2 0,7 5,1 5,1 18 10 29 16 NNE 20 0 0,0
17.02.2017 02:00:00 2,5 -2,2 0,8 5,1 5,1 7 4 17 9 NNE 20 0 0,0
17.02.2017 01:00:00 2,7 -1,8 0,9 5,2 5,1 9 5 16 9 NE 20 0 0,0
17.02.2017 00:00:00 3,6 -1,6 0,8 5,1 5,1 6 4 10 6 NNE 20 0 0,0
16.02.2017 23:00:00 4,3 -1,1 2,2 5,1 5,1 2 1 10 5 S 20 0 0,0
16.02.2017 22:00:00 5,6 -1,3 3,3 5,1 5,1 9 5 15 8 NE 20 0 0,0
16.02.2017 21:00:00 6,0 -1,0 3,8 5,0 5,1 8 4 13 7 N 20 0 0,0
16.02.2017 20:00:00 7,4 -0,8 4,7 5,0 5,1 4 2 9 5 NE 20 0 0,0
16.02.2017 19:00:00 8,6 -1,0 5,5 4,9 5,1 4 2 9 5 N 20 0 0,0
16.02.2017 18:00:00 10,7 -0,8 7,7 4,8 5,1 3 1 18 10 W 17 21 0,0
16.02.2017 17:00:00 13,3 0,0 13,8 4,7 5,1 8 5 22 12 SSW 17 60 0,0
16.02.2017 16:00:00 14,0 -0,9 17,4 4,6 5,1 14 8 26 14 SW 20 60 0,0
16.02.2017 15:00:00 14,0 -0,9 18,8 4,6 5,1 15 8 27 15 SSW 20 60 0,0
16.02.2017 14:00:00 13,5 -1,3 20,6 4,5 5,1 8 4 15 8 SSW 20 60 0,0
16.02.2017 13:00:00 11,8 -1,0 18,2 4,6 5,1 6 3 14 8 SSW 20 60 0,0
16.02.2017 12:00:00 10,7 -1,4 17,1 4,6 5,1 9 5 17 9 S 20 60 0,0
16.02.2017 11:00:00 8,5 -2,8 12,8 4,6 5,0 9 5 27 14 NNE 20 60 0,0
16.02.2017 10:00:00 6,1 -2,5 6,9 4,7 5,0 12 6 32 18 NNE 20 60 0,0
16.02.2017 09:00:00 3,0 -2,7 -0,5 4,7 5,0 10 6 18 10 ENE 20 13 0,0
16.02.2017 08:00:00 0,9 -3,0 -2,1 4,8 5,0 9 5 16 9 NE 20 0 0,0
16.02.2017 07:00:00 1,6 -3,5 -0,4 4,8 5,0 6 3 23 12 ENE 20 0 0,0

tt = Température de l'air
td = dewpoint
tt 5cm = Température de l'air 5cm
tt -20cm = Température de l'air -20cm
tt -100cm = Température de l'air -100cm
ff = Vitesse du vent
fx = gusts
dd = Direction du vent
vv = visibility
sd = Ensoleillement
rr = Quantités de précipitations

stations d'obs. à proximité